sensor_id;sensor_type;location;lat;lon;timestamp;temperature;humidity
20891;DHT22;10605;52.968;8.844;2023-07-20T00:01:12;14.90;99.90
20891;DHT22;10605;52.968;8.844;2023-07-20T00:03:37;14.90;99.90
20891;DHT22;10605;52.968;8.844;2023-07-20T00:06:03;14.90;99.90
20891;DHT22;10605;52.968;8.844;2023-07-20T00:08:30;14.90;99.90
20891;DHT22;10605;52.968;8.844;2023-07-20T00:10:56;15.00;99.90
20891;DHT22;10605;52.968;8.844;2023-07-20T00:13:21;15.00;99.90
20891;DHT22;10605;52.968;8.844;2023-07-20T00:15:47;14.90;99.90
20891;DHT22;10605;52.968;8.844;2023-07-20T00:18:13;14.90;99.90
20891;DHT22;10605;52.968;8.844;2023-07-20T00:20:39;14.90;99.90
20891;DHT22;10605;52.968;8.844;2023-07-20T00:23:05;14.90;99.90
20891;DHT22;10605;52.968;8.844;2023-07-20T00:25:32;14.90;99.90
20891;DHT22;10605;52.968;8.844;2023-07-20T00:27:58;14.90;99.90
20891;DHT22;10605;52.968;8.844;2023-07-20T00:30:24;14.80;99.90
20891;DHT22;10605;52.968;8.844;2023-07-20T00:32:50;14.70;99.90
20891;DHT22;10605;52.968;8.844;2023-07-20T00:35:15;14.70;99.90
20891;DHT22;10605;52.968;8.844;2023-07-20T00:37:41;14.70;99.90
20891;DHT22;10605;52.968;8.844;2023-07-20T00:40:07;14.70;99.90
20891;DHT22;10605;52.968;8.844;2023-07-20T00:42:33;14.70;99.90
20891;DHT22;10605;52.968;8.844;2023-07-20T00:44:59;14.70;99.90
20891;DHT22;10605;52.968;8.844;2023-07-20T00:47:26;14.80;99.90
20891;DHT22;10605;52.968;8.844;2023-07-20T00:49:52;14.80;99.90
20891;DHT22;10605;52.968;8.844;2023-07-20T00:52:21;14.80;99.90
20891;DHT22;10605;52.968;8.844;2023-07-20T00:54:47;14.80;99.90
20891;DHT22;10605;52.968;8.844;2023-07-20T00:57:15;14.80;99.90
20891;DHT22;10605;52.968;8.844;2023-07-20T00:59:41;14.80;99.90
20891;DHT22;10605;52.968;8.844;2023-07-20T01:02:07;14.80;99.90
20891;DHT22;10605;52.968;8.844;2023-07-20T01:04:33;14.80;99.90
20891;DHT22;10605;52.968;8.844;2023-07-20T01:09:39;14.80;99.90
20891;DHT22;10605;52.968;8.844;2023-07-20T01:12:13;14.80;99.90
20891;DHT22;10605;52.968;8.844;2023-07-20T01:14:44;14.80;99.90
20891;DHT22;10605;52.968;8.844;2023-07-20T01:17:10;14.80;99.90
20891;DHT22;10605;52.968;8.844;2023-07-20T01:19:37;14.80;99.90
20891;DHT22;10605;52.968;8.844;2023-07-20T01:22:21;14.80;99.90
20891;DHT22;10605;52.968;8.844;2023-07-20T01:27:54;14.90;99.90
20891;DHT22;10605;52.968;8.844;2023-07-20T01:33:13;14.90;99.90
20891;DHT22;10605;52.968;8.844;2023-07-20T01:35:42;14.90;99.90
20891;DHT22;10605;52.968;8.844;2023-07-20T01:38:10;14.90;99.90
20891;DHT22;10605;52.968;8.844;2023-07-20T01:40:37;14.90;99.90
20891;DHT22;10605;52.968;8.844;2023-07-20T01:43:03;15.00;99.90
20891;DHT22;10605;52.968;8.844;2023-07-20T01:45:29;15.00;99.90
20891;DHT22;10605;52.968;8.844;2023-07-20T01:47:55;14.90;99.90
20891;DHT22;10605;52.968;8.844;2023-07-20T01:50:20;15.00;99.90
20891;DHT22;10605;52.968;8.844;2023-07-20T01:52:46;15.00;99.90
20891;DHT22;10605;52.968;8.844;2023-07-20T01:55:12;15.00;99.90
20891;DHT22;10605;52.968;8.844;2023-07-20T01:57:37;15.00;99.90
20891;DHT22;10605;52.968;8.844;2023-07-20T02:00:03;15.00;99.90
20891;DHT22;10605;52.968;8.844;2023-07-20T02:02:29;15.00;99.90
20891;DHT22;10605;52.968;8.844;2023-07-20T02:04:55;15.00;99.90
20891;DHT22;10605;52.968;8.844;2023-07-20T02:07:21;15.00;99.90
20891;DHT22;10605;52.968;8.844;2023-07-20T02:09:46;15.00;99.90
20891;DHT22;10605;52.968;8.844;2023-07-20T02:12:12;15.00;99.90
20891;DHT22;10605;52.968;8.844;2023-07-20T02:14:37;15.00;99.90
20891;DHT22;10605;52.968;8.844;2023-07-20T02:17:04;15.00;99.90
20891;DHT22;10605;52.968;8.844;2023-07-20T02:19:30;14.90;99.90
20891;DHT22;10605;52.968;8.844;2023-07-20T02:21:56;15.00;99.90
20891;DHT22;10605;52.968;8.844;2023-07-20T02:24:21;14.90;99.90
20891;DHT22;10605;52.968;8.844;2023-07-20T02:26:47;14.90;99.90
20891;DHT22;10605;52.968;8.844;2023-07-20T02:29:12;14.90;99.90
20891;DHT22;10605;52.968;8.844;2023-07-20T02:31:38;14.90;99.90
20891;DHT22;10605;52.968;8.844;2023-07-20T02:34:05;14.90;99.90
20891;DHT22;10605;52.968;8.844;2023-07-20T02:36:31;14.90;99.90
20891;DHT22;10605;52.968;8.844;2023-07-20T02:39:00;15.00;99.90
20891;DHT22;10605;52.968;8.844;2023-07-20T02:41:30;14.90;99.90
20891;DHT22;10605;52.968;8.844;2023-07-20T02:43:55;14.90;99.90
20891;DHT22;10605;52.968;8.844;2023-07-20T02:46:22;14.90;99.90
20891;DHT22;10605;52.968;8.844;2023-07-20T02:48:47;14.90;99.90
20891;DHT22;10605;52.968;8.844;2023-07-20T02:51:13;14.90;99.90
20891;DHT22;10605;52.968;8.844;2023-07-20T02:53:38;14.90;99.90
20891;DHT22;10605;52.968;8.844;2023-07-20T02:56:04;14.90;99.90
20891;DHT22;10605;52.968;8.844;2023-07-20T02:58:30;14.90;99.90
20891;DHT22;10605;52.968;8.844;2023-07-20T03:00:55;14.90;99.90
20891;DHT22;10605;52.968;8.844;2023-07-20T03:03:21;14.80;99.90
20891;DHT22;10605;52.968;8.844;2023-07-20T03:05:46;14.80;99.90
20891;DHT22;10605;52.968;8.844;2023-07-20T03:08:12;14.90;99.90
20891;DHT22;10605;52.968;8.844;2023-07-20T03:10:39;14.80;99.90
20891;DHT22;10605;52.968;8.844;2023-07-20T03:13:06;14.80;99.90
20891;DHT22;10605;52.968;8.844;2023-07-20T03:15:32;14.80;99.90
20891;DHT22;10605;52.968;8.844;2023-07-20T03:17:57;14.80;99.90
20891;DHT22;10605;52.968;8.844;2023-07-20T03:20:24;14.80;99.90
20891;DHT22;10605;52.968;8.844;2023-07-20T03:22:49;14.80;99.90
20891;DHT22;10605;52.968;8.844;2023-07-20T03:25:15;14.80;99.90
20891;DHT22;10605;52.968;8.844;2023-07-20T03:27:41;14.80;99.90
20891;DHT22;10605;52.968;8.844;2023-07-20T03:30:07;14.80;99.90
20891;DHT22;10605;52.968;8.844;2023-07-20T03:32:35;14.80;99.90
20891;DHT22;10605;52.968;8.844;2023-07-20T03:35:01;14.80;99.90
20891;DHT22;10605;52.968;8.844;2023-07-20T03:37:26;14.80;99.90
20891;DHT22;10605;52.968;8.844;2023-07-20T03:39:52;14.80;99.90
20891;DHT22;10605;52.968;8.844;2023-07-20T03:42:18;14.80;99.90
20891;DHT22;10605;52.968;8.844;2023-07-20T03:44:43;14.90;99.90
20891;DHT22;10605;52.968;8.844;2023-07-20T03:47:09;14.90;99.90
20891;DHT22;10605;52.968;8.844;2023-07-20T03:49:34;14.90;99.90
20891;DHT22;10605;52.968;8.844;2023-07-20T03:52:01;15.00;99.90
20891;DHT22;10605;52.968;8.844;2023-07-20T03:54:28;14.90;99.90
20891;DHT22;10605;52.968;8.844;2023-07-20T03:56:54;14.90;99.90
20891;DHT22;10605;52.968;8.844;2023-07-20T03:59:20;15.00;99.90
20891;DHT22;10605;52.968;8.844;2023-07-20T04:01:46;14.90;99.90
20891;DHT22;10605;52.968;8.844;2023-07-20T04:04:11;15.00;99.90
20891;DHT22;10605;52.968;8.844;2023-07-20T04:06:37;15.00;99.90
20891;DHT22;10605;52.968;8.844;2023-07-20T04:09:03;15.00;99.90
20891;DHT22;10605;52.968;8.844;2023-07-20T04:11:32;15.00;99.90
20891;DHT22;10605;52.968;8.844;2023-07-20T04:13:58;15.10;99.90
20891;DHT22;10605;52.968;8.844;2023-07-20T04:16:23;15.10;99.90
20891;DHT22;10605;52.968;8.844;2023-07-20T04:18:49;15.10;99.90
20891;DHT22;10605;52.968;8.844;2023-07-20T04:21:15;15.10;99.90
20891;DHT22;10605;52.968;8.844;2023-07-20T04:23:40;15.10;99.90
20891;DHT22;10605;52.968;8.844;2023-07-20T04:26:06;15.20;99.90
20891;DHT22;10605;52.968;8.844;2023-07-20T04:28:32;15.30;99.90
20891;DHT22;10605;52.968;8.844;2023-07-20T04:31:09;15.30;99.90
20891;DHT22;10605;52.968;8.844;2023-07-20T04:33:36;15.40;99.90
20891;DHT22;10605;52.968;8.844;2023-07-20T04:36:02;15.40;99.90
20891;DHT22;10605;52.968;8.844;2023-07-20T04:38:28;15.40;99.90
20891;DHT22;10605;52.968;8.844;2023-07-20T04:40:54;15.50;99.90
20891;DHT22;10605;52.968;8.844;2023-07-20T04:43:19;15.60;99.90
20891;DHT22;10605;52.968;8.844;2023-07-20T04:45:45;15.70;99.90
20891;DHT22;10605;52.968;8.844;2023-07-20T04:48:13;15.70;99.90
20891;DHT22;10605;52.968;8.844;2023-07-20T04:50:44;15.80;99.90
20891;DHT22;10605;52.968;8.844;2023-07-20T04:53:13;16.00;99.90
20891;DHT22;10605;52.968;8.844;2023-07-20T04:55:39;16.10;99.90
20891;DHT22;10605;52.968;8.844;2023-07-20T04:58:06;16.50;99.90
20891;DHT22;10605;52.968;8.844;2023-07-20T05:00:35;16.80;99.90
20891;DHT22;10605;52.968;8.844;2023-07-20T05:03:01;17.10;99.90
20891;DHT22;10605;52.968;8.844;2023-07-20T05:05:26;17.00;99.90
20891;DHT22;10605;52.968;8.844;2023-07-20T05:07:52;17.40;99.90
20891;DHT22;10605;52.968;8.844;2023-07-20T05:10:18;17.60;99.90
20891;DHT22;10605;52.968;8.844;2023-07-20T05:12:43;17.50;99.90
20891;DHT22;10605;52.968;8.844;2023-07-20T05:15:09;17.40;99.90
20891;DHT22;10605;52.968;8.844;2023-07-20T05:17:36;17.40;99.90
20891;DHT22;10605;52.968;8.844;2023-07-20T05:20:02;18.00;99.90
20891;DHT22;10605;52.968;8.844;2023-07-20T05:22:29;18.20;99.90
20891;DHT22;10605;52.968;8.844;2023-07-20T05:24:55;18.50;99.90
20891;DHT22;10605;52.968;8.844;2023-07-20T05:27:21;18.30;99.90
20891;DHT22;10605;52.968;8.844;2023-07-20T05:29:47;18.20;99.90
20891;DHT22;10605;52.968;8.844;2023-07-20T05:32:13;18.60;99.90
20891;DHT22;10605;52.968;8.844;2023-07-20T05:34:39;19.40;99.90
20891;DHT22;10605;52.968;8.844;2023-07-20T05:37:05;19.90;99.90
20891;DHT22;10605;52.968;8.844;2023-07-20T05:39:32;19.70;99.90
20891;DHT22;10605;52.968;8.844;2023-07-20T05:41:58;18.90;99.90
20891;DHT22;10605;52.968;8.844;2023-07-20T05:44:24;18.50;99.90
20891;DHT22;10605;52.968;8.844;2023-07-20T05:46:49;18.40;99.90
20891;DHT22;10605;52.968;8.844;2023-07-20T05:49:15;19.40;99.90
20891;DHT22;10605;52.968;8.844;2023-07-20T05:51:41;20.40;99.90
20891;DHT22;10605;52.968;8.844;2023-07-20T05:54:06;21.00;99.90
20891;DHT22;10605;52.968;8.844;2023-07-20T05:56:32;21.40;99.90
20891;DHT22;10605;52.968;8.844;2023-07-20T05:58:57;21.80;99.90
20891;DHT22;10605;52.968;8.844;2023-07-20T06:01:23;22.30;99.90
20891;DHT22;10605;52.968;8.844;2023-07-20T06:03:52;22.50;99.90
20891;DHT22;10605;52.968;8.844;2023-07-20T06:06:18;22.70;99.90
20891;DHT22;10605;52.968;8.844;2023-07-20T06:08:43;22.70;99.90
20891;DHT22;10605;52.968;8.844;2023-07-20T06:11:09;22.50;99.90
20891;DHT22;10605;52.968;8.844;2023-07-20T06:13:35;23.00;99.90
20891;DHT22;10605;52.968;8.844;2023-07-20T06:16:01;23.30;99.90
20891;DHT22;10605;52.968;8.844;2023-07-20T06:18:27;23.80;99.90
20891;DHT22;10605;52.968;8.844;2023-07-20T06:20:53;23.80;99.90
20891;DHT22;10605;52.968;8.844;2023-07-20T06:23:19;24.10;99.90
20891;DHT22;10605;52.968;8.844;2023-07-20T06:25:45;24.50;99.90
20891;DHT22;10605;52.968;8.844;2023-07-20T06:28:11;24.50;99.90
20891;DHT22;10605;52.968;8.844;2023-07-20T06:30:36;24.60;99.90
20891;DHT22;10605;52.968;8.844;2023-07-20T06:33:02;24.80;99.90
20891;DHT22;10605;52.968;8.844;2023-07-20T06:35:28;25.00;99.90
20891;DHT22;10605;52.968;8.844;2023-07-20T06:37:53;25.20;99.90
20891;DHT22;10605;52.968;8.844;2023-07-20T06:40:20;25.40;99.90
20891;DHT22;10605;52.968;8.844;2023-07-20T06:42:46;25.40;99.90
20891;DHT22;10605;52.968;8.844;2023-07-20T06:45:12;25.40;99.90
20891;DHT22;10605;52.968;8.844;2023-07-20T06:47:39;25.30;99.90
20891;DHT22;10605;52.968;8.844;2023-07-20T06:50:06;25.10;99.90
20891;DHT22;10605;52.968;8.844;2023-07-20T06:52:32;25.30;99.90
20891;DHT22;10605;52.968;8.844;2023-07-20T06:54:58;25.10;99.90
20891;DHT22;10605;52.968;8.844;2023-07-20T06:57:23;25.00;99.90
20891;DHT22;10605;52.968;8.844;2023-07-20T06:59:49;24.50;99.90
20891;DHT22;10605;52.968;8.844;2023-07-20T07:02:15;23.30;99.90
20891;DHT22;10605;52.968;8.844;2023-07-20T07:04:41;22.80;99.90
20891;DHT22;10605;52.968;8.844;2023-07-20T07:07:07;22.20;99.90
20891;DHT22;10605;52.968;8.844;2023-07-20T07:09:33;22.30;99.90
20891;DHT22;10605;52.968;8.844;2023-07-20T07:11:58;23.00;99.90
20891;DHT22;10605;52.968;8.844;2023-07-20T07:14:24;23.50;99.90
20891;DHT22;10605;52.968;8.844;2023-07-20T07:16:49;25.20;99.90
20891;DHT22;10605;52.968;8.844;2023-07-20T07:19:15;25.50;99.90
20891;DHT22;10605;52.968;8.844;2023-07-20T07:21:41;25.60;99.90
20891;DHT22;10605;52.968;8.844;2023-07-20T07:24:06;26.20;99.90
20891;DHT22;10605;52.968;8.844;2023-07-20T07:26:33;24.60;99.30
20891;DHT22;10605;52.968;8.844;2023-07-20T07:28:59;23.70;99.90
20891;DHT22;10605;52.968;8.844;2023-07-20T07:31:29;24.60;99.70
20891;DHT22;10605;52.968;8.844;2023-07-20T07:33:54;24.60;99.90
20891;DHT22;10605;52.968;8.844;2023-07-20T07:36:20;26.00;98.60
20891;DHT22;10605;52.968;8.844;2023-07-20T07:38:46;24.30;99.10
20891;DHT22;10605;52.968;8.844;2023-07-20T07:41:12;24.90;98.90
20891;DHT22;10605;52.968;8.844;2023-07-20T07:43:37;25.30;96.20
20891;DHT22;10605;52.968;8.844;2023-07-20T07:46:04;24.40;97.50
20891;DHT22;10605;52.968;8.844;2023-07-20T07:48:29;23.90;98.70
20891;DHT22;10605;52.968;8.844;2023-07-20T07:50:55;25.40;98.90
20891;DHT22;10605;52.968;8.844;2023-07-20T07:53:21;26.90;96.00
20891;DHT22;10605;52.968;8.844;2023-07-20T07:55:49;25.50;92.50
20891;DHT22;10605;52.968;8.844;2023-07-20T07:58:15;24.10;93.80
20891;DHT22;10605;52.968;8.844;2023-07-20T08:00:40;24.50;94.00
20891;DHT22;10605;52.968;8.844;2023-07-20T08:03:06;25.20;93.10
20891;DHT22;10605;52.968;8.844;2023-07-20T08:05:33;27.00;93.10
20891;DHT22;10605;52.968;8.844;2023-07-20T08:08:01;27.80;90.50
20891;DHT22;10605;52.968;8.844;2023-07-20T08:10:26;28.50;84.20
20891;DHT22;10605;52.968;8.844;2023-07-20T08:12:52;29.30;77.60
20891;DHT22;10605;52.968;8.844;2023-07-20T08:15:18;28.10;80.90
20891;DHT22;10605;52.968;8.844;2023-07-20T08:17:43;26.20;82.10
20891;DHT22;10605;52.968;8.844;2023-07-20T08:20:10;24.30;90.10
20891;DHT22;10605;52.968;8.844;2023-07-20T08:22:38;23.10;93.00
20891;DHT22;10605;52.968;8.844;2023-07-20T08:25:06;25.90;92.30
20891;DHT22;10605;52.968;8.844;2023-07-20T08:27:31;26.40;84.70
20891;DHT22;10605;52.968;8.844;2023-07-20T08:29:57;27.60;80.90
20891;DHT22;10605;52.968;8.844;2023-07-20T08:32:23;29.20;69.20
20891;DHT22;10605;52.968;8.844;2023-07-20T08:34:48;29.50;67.20
20891;DHT22;10605;52.968;8.844;2023-07-20T08:37:14;29.40;67.00
20891;DHT22;10605;52.968;8.844;2023-07-20T08:39:40;29.80;67.10
20891;DHT22;10605;52.968;8.844;2023-07-20T08:42:06;30.20;63.40
20891;DHT22;10605;52.968;8.844;2023-07-20T08:44:33;31.20;61.10
20891;DHT22;10605;52.968;8.844;2023-07-20T08:47:01;31.60;56.60
20891;DHT22;10605;52.968;8.844;2023-07-20T08:49:31;28.30;62.60
20891;DHT22;10605;52.968;8.844;2023-07-20T08:51:57;26.30;67.90
20891;DHT22;10605;52.968;8.844;2023-07-20T08:54:24;27.30;75.40
20891;DHT22;10605;52.968;8.844;2023-07-20T08:56:52;29.00;65.50
20891;DHT22;10605;52.968;8.844;2023-07-20T08:59:18;29.60;61.20
20891;DHT22;10605;52.968;8.844;2023-07-20T09:01:44;31.10;58.20
20891;DHT22;10605;52.968;8.844;2023-07-20T09:04:11;31.70;55.50
20891;DHT22;10605;52.968;8.844;2023-07-20T09:06:38;32.30;51.60
20891;DHT22;10605;52.968;8.844;2023-07-20T09:09:03;32.90;47.00
20891;DHT22;10605;52.968;8.844;2023-07-20T09:11:29;32.70;49.90
20891;DHT22;10605;52.968;8.844;2023-07-20T09:14:05;33.30;44.60
20891;DHT22;10605;52.968;8.844;2023-07-20T09:16:31;33.70;42.40
20891;DHT22;10605;52.968;8.844;2023-07-20T09:19:00;31.10;47.40
20891;DHT22;10605;52.968;8.844;2023-07-20T09:21:29;32.30;47.50
20891;DHT22;10605;52.968;8.844;2023-07-20T09:23:58;29.80;47.80
20891;DHT22;10605;52.968;8.844;2023-07-20T09:26:24;31.80;53.90
20891;DHT22;10605;52.968;8.844;2023-07-20T09:28:52;33.80;45.00
20891;DHT22;10605;52.968;8.844;2023-07-20T09:31:19;32.50;45.30
20891;DHT22;10605;52.968;8.844;2023-07-20T09:33:46;30.90;50.00
20891;DHT22;10605;52.968;8.844;2023-07-20T09:36:12;33.10;46.40
20891;DHT22;10605;52.968;8.844;2023-07-20T09:38:42;34.20;44.40
20891;DHT22;10605;52.968;8.844;2023-07-20T09:41:14;34.90;40.30
20891;DHT22;10605;52.968;8.844;2023-07-20T09:43:43;34.90;39.40
20891;DHT22;10605;52.968;8.844;2023-07-20T09:46:10;36.30;35.90
20891;DHT22;10605;52.968;8.844;2023-07-20T09:48:36;35.00;33.40
20891;DHT22;10605;52.968;8.844;2023-07-20T09:51:02;31.50;37.50
20891;DHT22;10605;52.968;8.844;2023-07-20T09:53:28;33.40;36.70
20891;DHT22;10605;52.968;8.844;2023-07-20T09:55:55;35.20;36.70
20891;DHT22;10605;52.968;8.844;2023-07-20T09:58:22;35.70;32.60
20891;DHT22;10605;52.968;8.844;2023-07-20T10:00:50;36.60;32.40
20891;DHT22;10605;52.968;8.844;2023-07-20T10:03:21;37.80;30.00
20891;DHT22;10605;52.968;8.844;2023-07-20T10:06:08;33.80;31.60
20891;DHT22;10605;52.968;8.844;2023-07-20T10:08:38;32.10;35.60
20891;DHT22;10605;52.968;8.844;2023-07-20T10:11:08;30.70;39.30
20891;DHT22;10605;52.968;8.844;2023-07-20T10:13:38;30.10;40.80
20891;DHT22;10605;52.968;8.844;2023-07-20T10:16:26;29.80;39.70
20891;DHT22;10605;52.968;8.844;2023-07-20T10:19:02;35.50;35.40
20891;DHT22;10605;52.968;8.844;2023-07-20T10:21:29;34.30;33.80
20891;DHT22;10605;52.968;8.844;2023-07-20T10:23:59;34.30;35.20
20891;DHT22;10605;52.968;8.844;2023-07-20T10:26:26;32.70;37.60
20891;DHT22;10605;52.968;8.844;2023-07-20T10:28:53;33.40;37.30
20891;DHT22;10605;52.968;8.844;2023-07-20T10:31:19;35.90;34.00
20891;DHT22;10605;52.968;8.844;2023-07-20T10:33:46;35.10;32.40
20891;DHT22;10605;52.968;8.844;2023-07-20T10:36:12;32.40;35.60
20891;DHT22;10605;52.968;8.844;2023-07-20T10:38:42;30.00;40.00
20891;DHT22;10605;52.968;8.844;2023-07-20T10:43:46;26.30;57.30
20891;DHT22;10605;52.968;8.844;2023-07-20T10:46:12;25.30;65.30
20891;DHT22;10605;52.968;8.844;2023-07-20T10:49:00;25.40;67.40
20891;DHT22;10605;52.968;8.844;2023-07-20T10:51:27;25.30;69.60
20891;DHT22;10605;52.968;8.844;2023-07-20T10:53:57;25.50;71.40
20891;DHT22;10605;52.968;8.844;2023-07-20T10:56:26;26.00;70.00
20891;DHT22;10605;52.968;8.844;2023-07-20T10:58:58;26.70;67.80
20891;DHT22;10605;52.968;8.844;2023-07-20T11:01:29;26.70;66.30
20891;DHT22;10605;52.968;8.844;2023-07-20T11:03:59;27.20;64.50
20891;DHT22;10605;52.968;8.844;2023-07-20T11:11:37;28.70;58.60
20891;DHT22;10605;52.968;8.844;2023-07-20T11:14:08;28.40;50.10
20891;DHT22;10605;52.968;8.844;2023-07-20T11:16:34;28.00;51.40
20891;DHT22;10605;52.968;8.844;2023-07-20T11:19:00;27.30;57.70
20891;DHT22;10605;52.968;8.844;2023-07-20T11:21:26;27.30;55.50
20891;DHT22;10605;52.968;8.844;2023-07-20T11:23:53;28.90;55.20
20891;DHT22;10605;52.968;8.844;2023-07-20T11:26:18;28.90;53.10
20891;DHT22;10605;52.968;8.844;2023-07-20T11:28:49;30.30;52.80
20891;DHT22;10605;52.968;8.844;2023-07-20T11:31:15;29.40;49.80
20891;DHT22;10605;52.968;8.844;2023-07-20T11:33:43;32.60;47.00
20891;DHT22;10605;52.968;8.844;2023-07-20T11:36:09;33.40;41.30
20891;DHT22;10605;52.968;8.844;2023-07-20T11:38:35;35.40;37.40
20891;DHT22;10605;52.968;8.844;2023-07-20T11:41:02;37.40;34.20
20891;DHT22;10605;52.968;8.844;2023-07-20T11:43:30;38.80;30.90
20891;DHT22;10605;52.968;8.844;2023-07-20T11:45:56;39.40;28.60
20891;DHT22;10605;52.968;8.844;2023-07-20T11:48:21;39.70;27.80
20891;DHT22;10605;52.968;8.844;2023-07-20T11:50:47;40.40;28.20
20891;DHT22;10605;52.968;8.844;2023-07-20T11:53:14;39.10;28.10
20891;DHT22;10605;52.968;8.844;2023-07-20T11:55:40;36.60;28.30
20891;DHT22;10605;52.968;8.844;2023-07-20T11:58:08;37.10;31.90
20891;DHT22;10605;52.968;8.844;2023-07-20T12:00:35;38.50;26.70
20891;DHT22;10605;52.968;8.844;2023-07-20T12:03:01;36.10;30.00
20891;DHT22;10605;52.968;8.844;2023-07-20T12:05:28;37.50;28.50
20891;DHT22;10605;52.968;8.844;2023-07-20T12:07:54;38.00;26.80
20891;DHT22;10605;52.968;8.844;2023-07-20T12:10:25;37.50;28.40
20891;DHT22;10605;52.968;8.844;2023-07-20T12:12:51;38.60;27.50
20891;DHT22;10605;52.968;8.844;2023-07-20T12:15:24;39.50;24.80
20891;DHT22;10605;52.968;8.844;2023-07-20T12:17:56;39.30;26.10
20891;DHT22;10605;52.968;8.844;2023-07-20T12:20:40;39.70;25.50
20891;DHT22;10605;52.968;8.844;2023-07-20T12:23:09;37.90;25.60
20891;DHT22;10605;52.968;8.844;2023-07-20T12:25:38;38.60;25.90
20891;DHT22;10605;52.968;8.844;2023-07-20T12:28:08;39.50;25.10
20891;DHT22;10605;52.968;8.844;2023-07-20T12:30:35;35.90;25.70
20891;DHT22;10605;52.968;8.844;2023-07-20T12:33:02;34.50;28.00
20891;DHT22;10605;52.968;8.844;2023-07-20T12:35:28;30.70;34.90
20891;DHT22;10605;52.968;8.844;2023-07-20T12:37:55;28.10;37.80
20891;DHT22;10605;52.968;8.844;2023-07-20T12:40:21;26.10;46.90
20891;DHT22;10605;52.968;8.844;2023-07-20T12:42:47;24.30;68.70
20891;DHT22;10605;52.968;8.844;2023-07-20T12:45:13;23.00;91.80
20891;DHT22;10605;52.968;8.844;2023-07-20T12:47:39;21.60;99.90
20891;DHT22;10605;52.968;8.844;2023-07-20T12:50:06;21.10;99.90
20891;DHT22;10605;52.968;8.844;2023-07-20T12:52:35;21.10;99.90
20891;DHT22;10605;52.968;8.844;2023-07-20T12:55:02;20.90;99.90
20891;DHT22;10605;52.968;8.844;2023-07-20T12:57:27;20.80;99.90
20891;DHT22;10605;52.968;8.844;2023-07-20T12:59:53;20.60;99.90
20891;DHT22;10605;52.968;8.844;2023-07-20T13:02:19;20.60;99.90
20891;DHT22;10605;52.968;8.844;2023-07-20T13:04:44;20.60;99.90
20891;DHT22;10605;52.968;8.844;2023-07-20T13:07:10;20.40;99.90
20891;DHT22;10605;52.968;8.844;2023-07-20T13:09:39;20.30;99.90
20891;DHT22;10605;52.968;8.844;2023-07-20T13:12:04;20.30;99.90
20891;DHT22;10605;52.968;8.844;2023-07-20T13:14:30;20.40;99.90
20891;DHT22;10605;52.968;8.844;2023-07-20T13:16:56;20.60;99.90
20891;DHT22;10605;52.968;8.844;2023-07-20T13:19:22;20.50;99.90
20891;DHT22;10605;52.968;8.844;2023-07-20T13:21:47;20.40;99.90
20891;DHT22;10605;52.968;8.844;2023-07-20T13:24:13;20.50;99.90
20891;DHT22;10605;52.968;8.844;2023-07-20T13:26:39;20.40;99.90
20891;DHT22;10605;52.968;8.844;2023-07-20T13:29:05;20.60;99.90
20891;DHT22;10605;52.968;8.844;2023-07-20T13:31:30;20.70;99.90
20891;DHT22;10605;52.968;8.844;2023-07-20T13:33:56;20.80;99.90
20891;DHT22;10605;52.968;8.844;2023-07-20T13:36:24;20.90;99.90
20891;DHT22;10605;52.968;8.844;2023-07-20T13:38:49;21.30;99.90
20891;DHT22;10605;52.968;8.844;2023-07-20T13:41:15;21.90;99.90
20891;DHT22;10605;52.968;8.844;2023-07-20T13:43:42;22.60;99.90
20891;DHT22;10605;52.968;8.844;2023-07-20T13:46:07;22.90;99.90
20891;DHT22;10605;52.968;8.844;2023-07-20T13:48:33;23.00;99.90
20891;DHT22;10605;52.968;8.844;2023-07-20T13:50:59;22.80;99.90
20891;DHT22;10605;52.968;8.844;2023-07-20T13:53:24;23.00;99.90
20891;DHT22;10605;52.968;8.844;2023-07-20T13:55:50;23.10;99.90
20891;DHT22;10605;52.968;8.844;2023-07-20T13:58:15;23.30;99.90
20891;DHT22;10605;52.968;8.844;2023-07-20T14:00:41;23.20;99.90
20891;DHT22;10605;52.968;8.844;2023-07-20T14:03:07;23.50;99.90
20891;DHT22;10605;52.968;8.844;2023-07-20T14:05:33;23.70;99.90
20891;DHT22;10605;52.968;8.844;2023-07-20T14:07:59;23.80;99.90
20891;DHT22;10605;52.968;8.844;2023-07-20T14:10:25;24.10;99.90
20891;DHT22;10605;52.968;8.844;2023-07-20T14:12:50;24.30;99.90
20891;DHT22;10605;52.968;8.844;2023-07-20T14:15:16;24.00;99.90
20891;DHT22;10605;52.968;8.844;2023-07-20T14:17:43;23.80;99.90
20891;DHT22;10605;52.968;8.844;2023-07-20T14:20:09;23.30;99.90
20891;DHT22;10605;52.968;8.844;2023-07-20T14:22:35;23.10;99.90
20891;DHT22;10605;52.968;8.844;2023-07-20T14:25:00;22.70;99.90
20891;DHT22;10605;52.968;8.844;2023-07-20T14:27:26;22.50;99.90
20891;DHT22;10605;52.968;8.844;2023-07-20T14:29:51;22.20;99.90
20891;DHT22;10605;52.968;8.844;2023-07-20T14:32:18;21.90;99.90
20891;DHT22;10605;52.968;8.844;2023-07-20T14:34:44;21.70;99.90
20891;DHT22;10605;52.968;8.844;2023-07-20T14:37:10;21.40;99.90
20891;DHT22;10605;52.968;8.844;2023-07-20T14:39:35;21.10;99.90
20891;DHT22;10605;52.968;8.844;2023-07-20T14:42:01;21.00;99.90
20891;DHT22;10605;52.968;8.844;2023-07-20T14:44:29;20.80;99.90
20891;DHT22;10605;52.968;8.844;2023-07-20T14:46:54;20.70;99.90
20891;DHT22;10605;52.968;8.844;2023-07-20T14:49:21;20.60;99.90
20891;DHT22;10605;52.968;8.844;2023-07-20T14:51:47;20.50;99.90
20891;DHT22;10605;52.968;8.844;2023-07-20T14:54:13;20.70;99.90
20891;DHT22;10605;52.968;8.844;2023-07-20T14:56:39;21.00;99.90
20891;DHT22;10605;52.968;8.844;2023-07-20T14:59:06;21.30;99.90
20891;DHT22;10605;52.968;8.844;2023-07-20T15:01:32;21.70;99.90
20891;DHT22;10605;52.968;8.844;2023-07-20T15:03:57;22.00;99.90
20891;DHT22;10605;52.968;8.844;2023-07-20T15:06:26;22.40;99.90
20891;DHT22;10605;52.968;8.844;2023-07-20T15:08:52;22.80;99.90
20891;DHT22;10605;52.968;8.844;2023-07-20T15:11:17;22.70;99.90
20891;DHT22;10605;52.968;8.844;2023-07-20T15:13:43;22.90;99.90
20891;DHT22;10605;52.968;8.844;2023-07-20T15:16:09;22.90;99.90
20891;DHT22;10605;52.968;8.844;2023-07-20T15:18:37;22.90;99.90
20891;DHT22;10605;52.968;8.844;2023-07-20T15:21:03;22.80;99.90
20891;DHT22;10605;52.968;8.844;2023-07-20T15:23:29;22.90;99.90
20891;DHT22;10605;52.968;8.844;2023-07-20T15:25:55;22.40;99.90
20891;DHT22;10605;52.968;8.844;2023-07-20T15:28:21;22.20;99.90
20891;DHT22;10605;52.968;8.844;2023-07-20T15:30:47;22.10;99.90
20891;DHT22;10605;52.968;8.844;2023-07-20T15:33:12;21.70;99.90
20891;DHT22;10605;52.968;8.844;2023-07-20T15:35:39;21.80;99.90
20891;DHT22;10605;52.968;8.844;2023-07-20T15:38:05;22.00;99.90
20891;DHT22;10605;52.968;8.844;2023-07-20T15:40:30;22.30;99.90
20891;DHT22;10605;52.968;8.844;2023-07-20T15:42:56;22.60;99.90